RYR2PK LEPA-LEMD
Flight info
| Callsign | RYR2PK |
|---|---|
| Flight time | 1h 5m |
| Altitude | 31000 |
| Route | EPAMA N733 PRADO |
| Aircraft | B739/M-SDE2E3FGHIRWXY/LB1 |
Departure
| Time | 2026-05-04 16:08 |
|---|---|
| Airport | Palma de Mallorca Airport (LEPA) |
Arrival
| Time | 2026-05-04 17:13 |
|---|---|
| Airport | Adolfo Suárez Madrid–Barajas Airport (LEMD) |
| Time | Latitude | Longitude | Altitude | Speed | Heading |
|---|---|---|---|---|---|
| 2026-05-04 15:46 | 39.54716 | 2.73676 | 35 ft | 0 kts | 59° |
| 2026-05-04 15:56 | 39.54707 | 2.73656 | 35 ft | 4 kts | 58° |
| 2026-05-04 15:56 | 39.54694 | 2.73626 | 33 ft | 4 kts | 79° |
| 2026-05-04 15:57 | 39.54697 | 2.73595 | 33 ft | 4 kts | 124° |
| 2026-05-04 15:57 | 39.54707 | 2.73580 | 33 ft | 0 kts | 148° |
| 2026-05-04 16:00 | 39.54703 | 2.73583 | 35 ft | 4 kts | 148° |
| 2026-05-04 16:00 | 39.54676 | 2.73605 | 35 ft | 5 kts | 145° |
| 2026-05-04 16:01 | 39.54661 | 2.73655 | 35 ft | 8 kts | 88° |
| 2026-05-04 16:01 | 39.54688 | 2.73733 | 35 ft | 10 kts | 60° |
| 2026-05-04 16:01 | 39.54723 | 2.73809 | 35 ft | 10 kts | 59° |
| 2026-05-04 16:01 | 39.54758 | 2.73883 | 35 ft | 10 kts | 56° |
| 2026-05-04 16:02 | 39.54805 | 2.73972 | 35 ft | 14 kts | 43° |
| 2026-05-04 16:02 | 39.54900 | 2.73964 | 35 ft | 14 kts | 349° |
| 2026-05-04 16:02 | 39.55055 | 2.73946 | 35 ft | 13 kts | 328° |
| 2026-05-04 16:03 | 39.55143 | 2.73876 | 35 ft | 17 kts | 328° |
| 2026-05-04 16:03 | 39.55246 | 2.73792 | 34 ft | 17 kts | 328° |
| 2026-05-04 16:03 | 39.55348 | 2.73712 | 35 ft | 17 kts | 329° |
| 2026-05-04 16:03 | 39.55447 | 2.73635 | 32 ft | 16 kts | 328° |
| 2026-05-04 16:04 | 39.55541 | 2.73559 | 29 ft | 16 kts | 328° |
| 2026-05-04 16:04 | 39.55703 | 2.73603 | 29 ft | 14 kts | 58° |
| 2026-05-04 16:04 | 39.55752 | 2.73707 | 27 ft | 13 kts | 58° |
| 2026-05-04 16:05 | 39.55801 | 2.73808 | 26 ft | 13 kts | 58° |
| 2026-05-04 16:05 | 39.55847 | 2.73907 | 25 ft | 13 kts | 59° |
| 2026-05-04 16:05 | 39.55948 | 2.74119 | 20 ft | 14 kts | 58° |
| 2026-05-04 16:06 | 39.56001 | 2.74228 | 18 ft | 14 kts | 54° |
| 2026-05-04 16:06 | 39.56173 | 2.74355 | 16 ft | 14 kts | 358° |
| 2026-05-04 16:07 | 39.56217 | 2.74230 | 18 ft | 4 kts | 237° |
| 2026-05-04 16:07 | 39.55288 | 2.72300 | 208 ft | 166 kts | 237° |
| 2026-05-04 16:08 | 39.54658 | 2.70940 | 825 ft | 187 kts | 236° |
| 2026-05-04 16:08 | 39.52363 | 2.66386 | 3122 ft | 210 kts | 237° |
| 2026-05-04 16:09 | 39.50868 | 2.63446 | 3969 ft | 181 kts | 236° |
| 2026-05-04 16:09 | 39.49509 | 2.60775 | 3969 ft | 181 kts | 236° |
| 2026-05-04 16:10 | 39.48044 | 2.57393 | 4338 ft | 244 kts | 261° |
| 2026-05-04 16:11 | 39.48734 | 2.50602 | 6672 ft | 260 kts | 275° |
| 2026-05-04 16:11 | 39.49011 | 2.48299 | 7503 ft | 260 kts | 275° |
| 2026-05-04 16:12 | 39.49813 | 2.41258 | 9909 ft | 268 kts | 274° |
| 2026-05-04 16:12 | 39.50657 | 2.33364 | 10727 ft | 328 kts | 275° |
| 2026-05-04 16:13 | 39.51298 | 2.27312 | 11730 ft | 345 kts | 275° |
| 2026-05-04 16:13 | 39.51951 | 2.21123 | 13157 ft | 349 kts | 275° |
| 2026-05-04 16:14 | 39.52608 | 2.14829 | 13895 ft | 353 kts | 275° |
| 2026-05-04 16:14 | 39.53261 | 2.08523 | 13918 ft | 354 kts | 275° |
| 2026-05-04 16:15 | 39.54241 | 1.98961 | 14933 ft | 358 kts | 275° |
| 2026-05-04 16:16 | 39.54891 | 1.92584 | 16312 ft | 359 kts | 275° |
| 2026-05-04 16:16 | 39.55871 | 1.82877 | 18140 ft | 365 kts | 274° |
| 2026-05-04 16:17 | 39.56529 | 1.76314 | 19193 ft | 369 kts | 274° |
| 2026-05-04 16:18 | 39.57528 | 1.66287 | 20650 ft | 378 kts | 273° |
| 2026-05-04 16:18 | 39.57858 | 1.62954 | 21179 ft | 379 kts | 273° |
| 2026-05-04 16:19 | 39.58867 | 1.52706 | 22638 ft | 386 kts | 272° |
| 2026-05-04 16:19 | 39.59546 | 1.45762 | 23525 ft | 391 kts | 272° |
| 2026-05-04 16:20 | 39.60213 | 1.35209 | 24667 ft | 391 kts | 262° |
| 2026-05-04 16:20 | 39.59782 | 1.28147 | 25417 ft | 395 kts | 262° |
| 2026-05-04 16:21 | 39.59156 | 1.17448 | 26661 ft | 396 kts | 262° |
| 2026-05-04 16:22 | 39.58754 | 1.10381 | 27807 ft | 391 kts | 262° |
| 2026-05-04 16:22 | 39.58151 | 0.99881 | 29294 ft | 387 kts | 262° |
| 2026-05-04 16:23 | 39.57545 | 0.89496 | 30610 ft | 384 kts | 261° |
| 2026-05-04 16:24 | 39.56727 | 0.75752 | 30926 ft | 381 kts | 261° |
| 2026-05-04 16:25 | 39.56315 | 0.68908 | 30903 ft | 381 kts | 261° |
| 2026-05-04 16:26 | 39.54849 | 0.45016 | 30895 ft | 380 kts | 261° |
| 2026-05-04 16:28 | 39.53776 | 0.27958 | 30898 ft | 380 kts | 261° |
| 2026-05-04 16:29 | 39.52205 | 0.04059 | 30902 ft | 380 kts | 261° |
| 2026-05-04 16:31 | 39.51055 | -0.13024 | 30893 ft | 381 kts | 261° |
| 2026-05-04 16:32 | 39.49641 | -0.33530 | 30886 ft | 381 kts | 261° |
| 2026-05-04 16:33 | 39.49274 | -0.47240 | 30891 ft | 389 kts | 276° |
| 2026-05-04 16:34 | 39.50992 | -0.53916 | 30877 ft | 402 kts | 291° |
| 2026-05-04 16:34 | 39.52390 | -0.57118 | 30888 ft | 404 kts | 292° |
| 2026-05-04 16:35 | 39.60818 | -0.76006 | 30910 ft | 403 kts | 292° |
| 2026-05-04 16:36 | 39.64967 | -0.85474 | 30911 ft | 404 kts | 292° |
| 2026-05-04 16:37 | 39.69133 | -0.95003 | 30961 ft | 405 kts | 292° |
| 2026-05-04 16:38 | 39.74695 | -1.07769 | 30961 ft | 406 kts | 292° |
| 2026-05-04 16:39 | 39.81138 | -1.22669 | 30988 ft | 405 kts | 292° |
| 2026-05-04 16:40 | 39.86700 | -1.35385 | 30961 ft | 403 kts | 292° |
| 2026-05-04 16:41 | 39.93563 | -1.51219 | 30965 ft | 401 kts | 292° |
| 2026-05-04 16:43 | 40.00348 | -1.67040 | 30976 ft | 399 kts | 292° |
| 2026-05-04 16:43 | 40.04402 | -1.76528 | 30979 ft | 399 kts | 292° |
| 2026-05-04 16:45 | 40.12467 | -1.95485 | 30973 ft | 390 kts | 292° |
| 2026-05-04 16:46 | 40.16290 | -2.04507 | 29957 ft | 371 kts | 292° |
| 2026-05-04 16:46 | 40.18753 | -2.10345 | 29013 ft | 363 kts | 292° |
| 2026-05-04 16:47 | 40.21159 | -2.16061 | 28076 ft | 355 kts | 292° |
| 2026-05-04 16:47 | 40.23508 | -2.21654 | 27211 ft | 347 kts | 293° |
| 2026-05-04 16:48 | 40.26934 | -2.29833 | 25912 ft | 339 kts | 294° |
| 2026-05-04 16:48 | 40.28053 | -2.32506 | 25726 ft | 329 kts | 294° |
| 2026-05-04 16:49 | 40.30210 | -2.37668 | 25743 ft | 328 kts | 294° |
| 2026-05-04 16:49 | 40.32447 | -2.43049 | 25923 ft | 340 kts | 294° |
| 2026-05-04 16:50 | 40.34704 | -2.48458 | 26055 ft | 337 kts | 294° |
| 2026-05-04 16:50 | 40.37023 | -2.53824 | 25994 ft | 337 kts | 294° |
| 2026-05-04 16:51 | 40.40154 | -2.58413 | 25975 ft | 355 kts | 325° |
| 2026-05-04 16:51 | 40.42473 | -2.59666 | 25955 ft | 366 kts | 339° |
| 2026-05-04 16:51 | 40.47651 | -2.59326 | 25958 ft | 391 kts | 17° |
| 2026-05-04 16:52 | 40.52664 | -2.57212 | 25612 ft | 364 kts | 348° |
| 2026-05-04 16:52 | 40.55018 | -2.58076 | 25148 ft | 346 kts | 323° |
| 2026-05-04 16:53 | 40.58015 | -2.62678 | 24188 ft | 331 kts | 298° |
| 2026-05-04 16:53 | 40.61213 | -2.70642 | 22819 ft | 327 kts | 295° |
| 2026-05-04 16:54 | 40.62254 | -2.73284 | 22464 ft | 323 kts | 295° |
| 2026-05-04 16:55 | 40.66201 | -2.82980 | 21957 ft | 282 kts | 297° |
| 2026-05-04 16:55 | 40.68210 | -2.87326 | 21179 ft | 276 kts | 298° |
| 2026-05-04 16:56 | 40.70213 | -2.91617 | 20338 ft | 273 kts | 298° |
| 2026-05-04 16:56 | 40.73144 | -2.97949 | 19091 ft | 267 kts | 298° |
| 2026-05-04 16:57 | 40.74106 | -3.00035 | 18700 ft | 265 kts | 298° |
| 2026-05-04 16:57 | 40.76001 | -3.04157 | 17850 ft | 261 kts | 298° |
| 2026-05-04 16:58 | 40.78825 | -3.10311 | 16438 ft | 261 kts | 297° |
| 2026-05-04 16:58 | 40.79760 | -3.12352 | 16006 ft | 260 kts | 298° |
| 2026-05-04 16:59 | 40.81609 | -3.16392 | 15157 ft | 258 kts | 298° |
| 2026-05-04 17:00 | 40.85146 | -3.24121 | 14154 ft | 223 kts | 298° |
| 2026-05-04 17:00 | 40.87538 | -3.29364 | 12791 ft | 221 kts | 298° |
| 2026-05-04 17:01 | 40.89111 | -3.32812 | 11935 ft | 218 kts | 298° |
| 2026-05-04 17:01 | 40.90664 | -3.36217 | 11086 ft | 214 kts | 298° |
| 2026-05-04 17:02 | 40.91761 | -3.39784 | 10221 ft | 209 kts | 278° |
| 2026-05-04 17:02 | 40.92324 | -3.43522 | 9445 ft | 203 kts | 280° |
| 2026-05-04 17:03 | 40.92523 | -3.45278 | 9330 ft | 185 kts | 266° |
| 2026-05-04 17:03 | 40.92339 | -3.46947 | 8953 ft | 185 kts | 260° |
| 2026-05-04 17:03 | 40.91899 | -3.50220 | 8237 ft | 180 kts | 259° |
| 2026-05-04 17:04 | 40.90350 | -3.52614 | 7693 ft | 172 kts | 217° |
| 2026-05-04 17:04 | 40.88143 | -3.54457 | 7788 ft | 210 kts | 215° |
| 2026-05-04 17:05 | 40.85707 | -3.56454 | 7630 ft | 197 kts | 215° |
| 2026-05-04 17:05 | 40.83263 | -3.57622 | 7086 ft | 192 kts | 183° |
| 2026-05-04 17:06 | 40.80539 | -3.57671 | 7030 ft | 197 kts | 184° |
| 2026-05-04 17:06 | 40.79189 | -3.57677 | 7013 ft | 191 kts | 183° |
| 2026-05-04 17:07 | 40.76486 | -3.57666 | 6730 ft | 197 kts | 183° |
| 2026-05-04 17:07 | 40.75566 | -3.57658 | 6569 ft | 196 kts | 184° |
| 2026-05-04 17:07 | 40.73777 | -3.57644 | 6235 ft | 192 kts | 184° |
| 2026-05-04 17:07 | 40.72432 | -3.57634 | 5967 ft | 194 kts | 183° |
| 2026-05-04 17:08 | 40.71084 | -3.57622 | 5703 ft | 193 kts | 184° |
| 2026-05-04 17:08 | 40.68425 | -3.57603 | 5203 ft | 191 kts | 184° |
| 2026-05-04 17:08 | 40.67149 | -3.57591 | 4941 ft | 177 kts | 184° |
| 2026-05-04 17:09 | 40.65968 | -3.57580 | 4710 ft | 162 kts | 185° |
| 2026-05-04 17:09 | 40.64880 | -3.57572 | 4513 ft | 155 kts | 185° |
| 2026-05-04 17:09 | 40.63799 | -3.57567 | 4309 ft | 155 kts | 184° |
| 2026-05-04 17:10 | 40.61698 | -3.57585 | 3747 ft | 152 kts | 186° |
| 2026-05-04 17:10 | 40.58616 | -3.57484 | 2889 ft | 143 kts | 184° |
| 2026-05-04 17:11 | 40.57608 | -3.57491 | 2758 ft | 145 kts | 185° |
| 2026-05-04 17:11 | 40.56594 | -3.57499 | 2597 ft | 148 kts | 184° |
| 2026-05-04 17:11 | 40.54533 | -3.57451 | 2317 ft | 150 kts | 186° |
| 2026-05-04 17:12 | 40.53484 | -3.57459 | 2194 ft | 152 kts | 185° |
| 2026-05-04 17:12 | 40.51453 | -3.57480 | 1997 ft | 122 kts | 179° |
| 2026-05-04 17:13 | 40.50153 | -3.57462 | 1986 ft | 22 kts | 182° |
| 2026-05-04 17:14 | 40.49846 | -3.57602 | 1983 ft | 0 kts | 210° |
| 2026-05-04 17:16 | 40.49797 | -3.57643 | 1984 ft | 10 kts | 213° |
| 2026-05-04 17:16 | 40.49736 | -3.57940 | 1998 ft | 16 kts | 272° |
| 2026-05-04 17:17 | 40.49687 | -3.58051 | 2000 ft | 15 kts | 194° |
| 2026-05-04 17:17 | 40.49388 | -3.58056 | 2002 ft | 13 kts | 180° |
| 2026-05-04 17:18 | 40.49296 | -3.58056 | 2002 ft | 13 kts | 180° |
| 2026-05-04 17:18 | 40.49120 | -3.58053 | 2002 ft | 12 kts | 180° |
| 2026-05-04 17:19 | 40.48954 | -3.58050 | 2002 ft | 12 kts | 179° |
| 2026-05-04 17:19 | 40.48795 | -3.58049 | 2002 ft | 11 kts | 180° |
| 2026-05-04 17:20 | 40.48646 | -3.58049 | 2002 ft | 10 kts | 180° |
| 2026-05-04 17:20 | 40.48507 | -3.57980 | 1998 ft | 14 kts | 148° |
| 2026-05-04 17:20 | 40.48409 | -3.57897 | 1990 ft | 19 kts | 148° |
| 2026-05-04 17:21 | 40.48206 | -3.57703 | 1995 ft | 17 kts | 142° |
| 2026-05-04 17:21 | 40.48023 | -3.57516 | 2000 ft | 16 kts | 142° |
| 2026-05-04 17:22 | 40.47936 | -3.57427 | 2003 ft | 16 kts | 142° |
| 2026-05-04 17:22 | 40.47851 | -3.57342 | 2003 ft | 15 kts | 143° |
| 2026-05-04 17:23 | 40.47613 | -3.57132 | 1996 ft | 10 kts | 201° |
| 2026-05-04 17:23 | 40.47560 | -3.57191 | 1995 ft | 10 kts | 210° |
| 2026-05-04 17:23 | 40.47446 | -3.57095 | 1991 ft | 9 kts | 147° |
| 2026-05-04 17:24 | 40.47411 | -3.57085 | 1990 ft | 0 kts | 181° |
| 2026-05-04 17:25 | 40.47407 | -3.57086 | 1990 ft | 2 kts | 183° |
| 2026-05-04 17:25 | 40.47372 | -3.57088 | 1990 ft | 1 kts | 182° |
| 2026-05-04 17:26 | 40.47367 | -3.57089 | 1989 ft | 0 kts | 182° |